Dobrodošli na spletni strani vremenske postaje Senovo. Vse informacije so informativnega značaja, saj vremenska postaja ni del državne mreže meteoroloških postaj. AKTUALNIH OBVESTIL NI.


Posebna pozornost v zvezi z vremenskimi dogajanji ni potrebna.    Posebna pozornost v zvezi z vremenskimi dogajanji ni potrebna.

Pogled proti Armezu več informacij Pogled proti Armezu


Lisca več informacij Lisca


Radar strel več informacij blitzortung!


Radar padavin več informacij rain snow radar


Obiščite še:

Template documentation
and downloads

And another site



Weather Underground, zgodovina - Tekstovno

Dnevni povzetek za Januar 12, 2018 Enote:  Angleško    Metrično   Obe
« Predhodni Dan
Naslednji Dan »
Dnevni Tedenski Mesečni Letni Po meri
  Višja: Nižja: Povprečje:
Temperatura: TemperatureC °F 0.8 °F 4.3 °F
Točka rosišča: DewpointC °F 0.2 °F 2.9 °F
Vlažnost: Humidity % 82 % 90 %
Hitrost vetra: WindSpeedKMH mph 0.0 mph 4.1 mph
Sunki vetra: WindSpeedGustKMH mph - -
Veter:- - East
Zračni tlak: PressurehPa in 1016.1 in -
Padavine: 1.0 in    
Historical Graphs
 
 
Tabelarni podarki za Januar 12, 2018
Čas Temperatura Točka rosišča Zračni tlak Veter Hitrost vetra Sunki vetra Vlažnost Intenziteta padavin (urna)
TemperatureC °F DewpointC °F PressurehPa in Calm     Humidity % HourlyPrecipMM in
00:01 4.7 °F 3.8 °F 1018.2 in Calm     94 % 0.0 in
00:08 4.6 °F 3.7 °F 1018.2 in Calm     94 % 0.0 in
00:16 4.6 °F 3.7 °F 1016.8 in Calm     94 % 0.0 in
00:36 4.6 °F 3.7 °F 1016.8 in Calm     94 % 0.0 in
00:37 4.6 °F 3.7 °F 1016.8 in Calm     94 % 0.0 in
00:48 4.6 °F 3.7 °F 1016.8 in Calm     94 % 0.0 in
00:51 4.6 °F 3.7 °F 1016.8 in Calm     94 % 0.0 in
01:05 4.6 °F 3.9 °F 1018.2 in Calm     95 % 0.0 in
01:23 4.6 °F 3.9 °F 1018.2 in SW 2.7 mph 6.1 mph 95 % 0.0 in
01:51 4.7 °F 3.9 °F 1016.1 in Calm     95 % 0.0 in
01:56 4.7 °F 3.9 °F 1016.1 in Calm     95 % 0.0 in
02:11 4.6 °F 3.9 °F 1016.8 in Calm     95 % 0.0 in
02:27 4.6 °F 3.9 °F 1016.8 in SW 0.3 mph 3.5 mph 95 % 0.0 in
02:39 4.6 °F 3.9 °F 1016.8 in Calm     95 % 0.0 in
02:43 4.5 °F 3.8 °F 1016.8 in Calm     95 % 0.0 in
02:48 4.5 °F 3.8 °F 1016.8 in Calm     95 % 0.0 in
02:53 4.5 °F 3.8 °F 1016.8 in Calm     95 % 0.0 in
03:04 4.4 °F 3.7 °F 1016.8 in Calm     95 % 0.0 in
03:23 4.2 °F 3.4 °F 1016.8 in Calm     95 % 0.0 in
03:31 4.2 °F 3.4 °F 1016.8 in Calm     95 % 0.0 in
03:36 4.1 °F 3.4 °F 1016.8 in Calm     95 % 0.0 in
03:41 4.1 °F 3.4 °F 1016.8 in Calm     95 % 0.0 in
03:48 4.0 °F 3.3 °F 1016.8 in Calm     95 % 0.0 in
03:53 3.9 °F 3.3 °F 1016.8 in Calm     96 % 0.0 in
04:02 3.7 °F 3.1 °F 1016.8 in Calm     96 % 0.0 in
04:08 3.7 °F 3.1 °F 1016.8 in Calm     96 % 0.0 in
04:13 3.6 °F 2.9 °F 1016.8 in Calm     95 % 0.0 in
04:25 3.2 °F 2.5 °F 1016.8 in Calm     95 % 0.0 in
04:31 3.1 °F 2.4 °F 1018.2 in SW 0.2 mph 3.2 mph 95 % 0.0 in
04:36 2.9 °F 2.3 °F 1018.2 in SW 0.5 mph 3.2 mph 96 % 0.0 in
04:51 2.6 °F 1.9 °F 1018.2 in Calm     95 % 0.0 in
04:58 2.5 °F 1.8 °F 1018.2 in Calm     95 % 0.0 in
05:04 2.4 °F 1.7 °F 1018.2 in Calm     95 % 0.0 in
05:10 2.4 °F 1.7 °F 1018.2 in Calm     95 % 0.0 in
05:15 2.3 °F 1.6 °F 1018.2 in Calm     95 % 0.0 in
05:22 2.2 °F 1.5 °F 1018.2 in Calm     95 % 0.0 in
05:27 2.1 °F 1.4 °F 1018.2 in Calm     95 % 0.0 in
05:34 2.0 °F 1.3 °F 1018.2 in Calm     95 % 0.0 in
05:39 1.9 °F 1.3 °F 1018.2 in Calm     96 % 0.0 in
05:45 1.8 °F 1.2 °F 1018.2 in Calm     96 % 0.0 in
05:51 1.7 °F 1.0 °F 1018.2 in Calm     95 % 0.0 in
05:58 1.6 °F 0.9 °F 1018.2 in Calm     95 % 0.0 in
06:04 1.6 °F 0.9 °F 1018.2 in Calm     95 % 0.0 in
06:09 1.6 °F 1.1 °F 1018.2 in Calm     96 % 0.0 in
06:16 1.6 °F 0.9 °F 1018.2 in Calm     95 % 0.0 in
06:29 1.4 °F 0.8 °F 1018.8 in Calm     96 % 0.0 in
06:38 1.4 °F 0.8 °F 1018.8 in Calm     96 % 0.0 in
06:54 1.2 °F 0.6 °F 1018.8 in Calm     96 % 0.0 in
07:00 1.2 °F 0.6 °F 1019.9 in Calm     96 % 0.0 in
07:06 1.1 °F 0.6 °F 1019.9 in Calm     96 % 0.0 in
07:16 1.0 °F 0.3 °F 1019.9 in Calm     95 % 0.0 in
07:23 1.0 °F 0.4 °F 1019.9 in Calm     96 % 0.0 in
07:40 0.8 °F 0.2 °F 1018.8 in Calm     96 % 0.0 in
07:48 0.9 °F 0.3 °F 1018.8 in Calm     96 % 0.0 in
07:57 0.9 °F 0.3 °F 1018.8 in Calm     96 % 0.0 in
08:04 0.9 °F 0.3 °F 1018.8 in Calm     96 % 0.0 in
08:18 1.1 °F 0.6 °F 1018.8 in Calm     96 % 0.0 in
08:24 1.1 °F 0.6 °F 1018.8 in Calm     96 % 0.0 in
08:34 1.2 °F 0.6 °F 1018.8 in Calm     96 % 0.0 in
08:42 1.3 °F 0.7 °F 1019.9 in Calm     96 % 0.0 in
08:49 1.4 °F 0.8 °F 1019.9 in Calm     96 % 0.0 in
09:11 1.8 °F 1.4 °F 1019.9 in Calm     97 % 0.0 in
09:16 1.9 °F 1.5 °F 1019.9 in Calm     97 % 0.0 in
09:27 2.1 °F 1.6 °F 1019.9 in Calm     96 % 0.0 in
09:34 2.3 °F 1.9 °F 1019.9 in Calm     97 % 0.0 in
09:50 2.9 °F 2.4 °F 1019.9 in Calm   2.1 mph 97 % 0.0 in
09:59 3.1 °F 2.7 °F 1020.9 in Calm     97 % 0.0 in
10:11 3.5 °F 3.1 °F 1020.9 in Calm     97 % 0.0 in
10:16 3.6 °F 3.2 °F 1020.9 in Calm     97 % 0.0 in
10:22 3.8 °F 3.4 °F 1020.9 in Calm     97 % 0.0 in
10:27 4.0 °F 3.6 °F 1020.9 in Calm     97 % 0.0 in
10:38 4.3 °F 3.9 °F 1020.9 in ESE 0.3 mph 4.0 mph 97 % 0.0 in
10:46 4.4 °F 3.9 °F 1020.9 in NNE 0.6 mph 4.3 mph 97 % 0.0 in
10:52 4.6 °F 4.2 °F 1020.9 in ESE 1.9 mph 4.3 mph 97 % 0.0 in
11:07 5.2 °F 4.8 °F 1021.9 in South 3.7 mph 6.9 mph 97 % 0.0 in
11:15 5.4 °F 4.9 °F 1020.9 in SE 3.1 mph 6.9 mph 97 % 0.0 in
11:21 5.6 °F 5.2 °F 1020.9 in SE 2.6 mph 6.1 mph 97 % 0.0 in
11:40 6.2 °F 5.8 °F 1020.9 in East 5.6 mph 10.5 mph 97 % 0.0 in
11:47 6.3 °F 5.8 °F 1020.9 in East 6.1 mph 10.5 mph 97 % 0.0 in
12:18 6.5 °F 5.9 °F 1020.9 in ESE 7.2 mph 14.0 mph 96 % 0.0 in
12:24 6.7 °F 6.1 °F 1020.9 in East 6.9 mph 12.6 mph 96 % 0.0 in
12:32 6.7 °F 5.9 °F 1019.9 in East 8.8 mph 16.3 mph 95 % 0.0 in
12:39 6.7 °F 5.8 °F 1019.9 in East 8.8 mph 13.7 mph 94 % 0.0 in
12:44 6.5 °F 5.6 °F 1019.9 in East 9.3 mph 15.8 mph 94 % 0.0 in
12:49 6.6 °F 5.6 °F 1019.9 in East 9.5 mph 15.8 mph 93 % 0.0 in
13:02 6.6 °F 5.2 °F 1019.9 in ESE 8.7 mph 16.6 mph 91 % 0.0 in
13:11 6.5 °F 5.0 °F 1019.9 in ESE 7.6 mph 15.4 mph 90 % 0.0 in
13:17 6.5 °F 4.8 °F 1019.9 in East 8.0 mph 15.8 mph 89 % 0.0 in
13:41 6.3 °F 4.3 °F 1019.9 in East 9.0 mph 15.8 mph 87 % 0.0 in
13:51 6.2 °F 4.1 °F 1019.9 in East 9.0 mph 15.4 mph 86 % 0.0 in
13:59 6.1 °F 3.9 °F 1019.9 in East 8.7 mph 16.6 mph 86 % 0.0 in
14:04 6.1 °F 3.8 °F 1019.9 in East 7.9 mph 16.6 mph 85 % 0.0 in
14:14 6.1 °F 3.8 °F 1020.9 in ESE 6.8 mph 13.7 mph 85 % 0.0 in
14:22 6.1 °F 3.6 °F 1020.9 in East 8.5 mph 16.3 mph 84 % 0.0 in
14:31 6.1 °F 3.6 °F 1020.9 in East 8.2 mph 15.8 mph 84 % 0.0 in
14:43 6.1 °F 3.4 °F 1020.9 in East 8.2 mph 18.0 mph 83 % 0.0 in
14:48 6.0 °F 3.3 °F 1020.9 in East 7.4 mph 17.7 mph 83 % 0.0 in
14:56 6.0 °F 3.2 °F 1020.9 in East 7.6 mph 14.8 mph 82 % 0.0 in
15:04 6.0 °F 3.2 °F 1020.9 in East 6.9 mph 14.0 mph 82 % 0.0 in
15:10 6.0 °F 3.2 °F 1020.9 in ENE 8.0 mph 14.0 mph 82 % 0.0 in
15:17 6.0 °F 3.2 °F 1020.9 in East 7.4 mph 14.0 mph 82 % 0.0 in
15:22 6.0 °F 3.2 °F 1020.9 in East 4.5 mph 11.9 mph 82 % 0.0 in
15:27 5.9 °F 3.1 °F 1020.9 in East 3.9 mph 7.9 mph 82 % 0.0 in
15:37 5.9 °F 3.1 °F 1020.9 in ESE 3.4 mph 6.9 mph 82 % 0.0 in
15:54 5.8 °F 2.9 °F 1020.9 in East 9.3 mph 15.4 mph 82 % 0.0 in
16:02 5.8 °F 2.9 °F 1020.9 in East 9.5 mph 15.4 mph 82 % 0.3 in
16:10 5.7 °F 2.9 °F 1020.9 in East 10.1 mph 17.2 mph 82 % 0.3 in
16:18 5.7 °F 2.9 °F 1019.9 in ENE 7.9 mph 13.7 mph 82 % 0.3 in
16:29 5.6 °F 2.8 °F 1019.9 in ENE 7.2 mph 13.0 mph 82 % 0.3 in
16:38 5.6 °F 2.9 °F 1019.9 in East 7.6 mph 14.0 mph 83 % 0.3 in
16:48 5.6 °F 2.9 °F 1020.9 in East 8.7 mph 19.8 mph 83 % 0.3 in
16:55 5.6 °F 2.9 °F 1020.9 in East 10.0 mph 19.8 mph 83 % 0.3 in
17:05 5.6 °F 2.9 °F 1020.9 in East 12.1 mph 23.8 mph 83 % 0.0 in
17:10 5.5 °F 2.8 °F 1020.9 in East 11.6 mph 21.2 mph 83 % 0.0 in
17:20 5.4 °F 2.7 °F 1020.9 in East 9.7 mph 16.6 mph 83 % 0.0 in
17:25 5.4 °F 2.7 °F 1020.9 in East 8.0 mph 13.7 mph 83 % 0.0 in
17:30 5.3 °F 2.8 °F 1020.9 in East 7.1 mph 12.6 mph 84 % 0.0 in
17:36 5.3 °F 2.8 °F 1020.9 in ENE 6.3 mph 10.5 mph 84 % 0.3 in
17:41 5.3 °F 2.8 °F 1020.9 in ENE 6.8 mph 16.3 mph 84 % 0.3 in
17:47 5.3 °F 2.8 °F 1020.9 in ENE 7.1 mph 16.3 mph 84 % 0.3 in
17:52 5.2 °F 2.7 °F 1020.9 in ENE 6.3 mph 12.2 mph 84 % 0.3 in
18:01 5.2 °F 2.7 °F 1021.9 in ENE 7.7 mph 15.4 mph 84 % 0.3 in
18:23 5.2 °F 2.9 °F 1021.9 in East 7.7 mph 21.2 mph 85 % 0.3 in
18:28 5.2 °F 2.9 °F 1021.9 in East 9.2 mph 14.0 mph 85 % 0.3 in
18:34 5.1 °F 2.8 °F 1021.9 in East 6.9 mph 14.0 mph 85 % 0.3 in
18:41 5.1 °F 2.8 °F 1021.9 in East 5.0 mph 12.2 mph 85 % 0.3 in
18:51 5.1 °F 2.8 °F 1021.9 in ENE 6.8 mph 15.8 mph 85 % 0.3 in
18:57 5.1 °F 2.8 °F 1022.9 in ENE 7.2 mph 15.8 mph 85 % 0.3 in
19:03 5.1 °F 2.9 °F 1022.9 in East 5.6 mph 10.8 mph 86 % 0.3 in
19:11 5.0 °F 2.8 °F 1022.9 in ENE 7.7 mph 16.9 mph 86 % 0.3 in
19:47 4.9 °F 2.8 °F 1022.9 in ENE 6.9 mph 16.3 mph 86 % 0.3 in
19:52 4.9 °F 2.8 °F 1022.9 in East 6.8 mph 11.9 mph 86 % 0.3 in
19:57 4.9 °F 2.8 °F 1022.9 in East 7.2 mph 11.9 mph 86 % 0.3 in
20:10 4.8 °F 2.7 °F 1022.9 in East 8.8 mph 13.7 mph 86 % 0.3 in
20:16 4.8 °F 2.8 °F 1022.9 in ENE 8.4 mph 13.0 mph 87 % 0.3 in
20:28 4.8 °F 2.8 °F 1022.9 in ENE 8.0 mph 17.7 mph 87 % 0.3 in
20:39 4.9 °F 2.9 °F 1022.9 in East 8.5 mph 17.2 mph 87 % 0.3 in
21:09 5.0 °F 3.0 °F 1022.9 in East 9.2 mph 14.0 mph 87 % 0.3 in
21:14 5.0 °F 3.0 °F 1022.9 in ESE 8.4 mph 14.0 mph 87 % 0.3 in
21:21 5.0 °F 3.0 °F 1022.9 in East 6.9 mph 12.6 mph 87 % 0.3 in
21:29 5.0 °F 3.0 °F 1021.9 in East 7.6 mph 12.2 mph 87 % 0.3 in
21:39 5.1 °F 3.1 °F 1021.9 in ENE 6.9 mph 17.7 mph 87 % 0.0 in
21:50 5.1 °F 3.1 °F 1022.9 in ENE 7.9 mph 17.2 mph 87 % 0.0 in
21:57 5.1 °F 3.1 °F 1021.9 in NE 7.1 mph 19.5 mph 87 % 0.0 in
22:06 5.1 °F 3.1 °F 1021.9 in ENE 7.6 mph 13.7 mph 87 % 0.0 in
22:27 5.1 °F 2.9 °F 1022.9 in ENE 9.3 mph 19.8 mph 86 % 0.0 in
22:33 5.1 °F 2.9 °F 1022.9 in ENE 9.3 mph 17.2 mph 86 % 0.0 in
22:40 5.0 °F 2.8 °F 1022.9 in NE 10.1 mph 17.2 mph 86 % 0.0 in
22:50 5.0 °F 2.8 °F 1022.9 in ENE 10.1 mph 19.5 mph 86 % 0.0 in
23:00 5.0 °F 2.8 °F 1022.9 in ENE 10.3 mph 20.9 mph 86 % 0.0 in
23:08 5.0 °F 2.8 °F 1022.9 in East 8.2 mph 20.9 mph 86 % 0.0 in
23:16 5.0 °F 2.8 °F 1022.9 in ENE 8.8 mph 16.6 mph 86 % 0.0 in
23:23 4.9 °F 2.8 °F 1022.9 in ENE 7.7 mph 19.5 mph 86 % 0.0 in
23:32 4.9 °F 2.8 °F 1022.9 in East 7.6 mph 13.0 mph 86 % 0.0 in
23:37 4.8 °F 2.7 °F 1022.9 in ENE 7.4 mph 13.0 mph 86 % 0.0 in
23:46 4.8 °F 2.7 °F 1022.9 in NE 5.5 mph 11.1 mph 86 % 0.0 in
23:58 4.8 °F 2.7 °F 1022.9 in ENE 6.0 mph 10.1 mph 86 % 0.0 in
Vremenska postaja Senovo
Podatki zbrani iz Weather Underground - 2.25 mb

Script developed by  Jim McMurry - jmcmurry@mwt.net Adapted for the template by  Wim van der Kuil - Leuven-Template.eu

Vremenski podatki so objavljeni na:

European Weather Network

WeatherCloud

Weather Underground

AWEKAS

HAMweather, WeatherForYou, PWS Weather

MapView

Geostik

Slovenia weather network

Oprema, ki se uporablja:

Vremenski program
Cumulus

Vremenski server
Asus

Cumulus

Asus